Time;durP1;ratioP1;P1;durP2;ratioP2;P2;SDS_P1;SDS_P2;PMS_P1;PMS_P2;Temp;Humidity;BMP_temperature;BMP_pressure;BME280_temperature;BME280_humidity;BME280_pressure;Samples;Min_cycle;Max_cycle;Signal;HPM_P1;HPM_P2
2023/09/08 00:01:16;;;;;;;2.60;2.40;;;;;;;23.24;100.00;99859.69;5111352;28;20206;-72
2023/09/08 00:03:42;;;;;;;2.20;2.10;;;;;;;23.22;100.00;99860.75;5111486;28;20555;-72
2023/09/08 00:06:09;;;;;;;2.80;2.27;;;;;;;23.14;100.00;99863.94;5111468;28;20256;-72
2023/09/08 00:08:36;;;;;;;1.73;1.63;;;;;;;23.09;100.00;99854.75;5111656;28;20211;-72
2023/09/08 00:11:04;;;;;;;3.20;2.97;;;;;;;23.10;100.00;99856.44;5111719;28;20198;-72
2023/09/08 00:13:31;;;;;;;2.70;2.60;;;;;;;23.02;100.00;99844.75;5110382;28;20613;-72
2023/09/08 00:15:58;;;;;;;3.17;3.07;;;;;;;23.09;100.00;99854.75;5111829;28;20202;-72
2023/09/08 00:18:25;;;;;;;2.83;2.63;;;;;;;22.95;100.00;99842.72;5111510;28;20194;-72
2023/09/08 00:20:51;;;;;;;2.87;2.67;;;;;;;22.93;100.00;99855.91;5111695;28;20199;-72
2023/09/08 00:23:18;;;;;;;3.47;2.10;;;;;;;22.95;100.00;99864.47;5111414;27;20259;-72
2023/09/08 00:25:45;;;;;;;2.27;2.17;;;;;;;22.85;100.00;99870.47;5111660;28;20980;-72
2023/09/08 00:28:13;;;;;;;4.43;2.10;;;;;;;22.76;100.00;99864.16;5111692;28;20682;-72
2023/09/08 00:30:39;;;;;;;2.30;2.10;;;;;;;22.76;100.00;99864.16;5110952;28;20201;-71
2023/09/08 00:33:08;;;;;;;3.07;2.43;;;;;;;22.81;100.00;99864.63;5110801;28;20743;-72
2023/09/08 00:35:35;;;;;;;2.60;2.40;;;;;;;22.84;100.00;99867.03;5111291;28;20237;-72
2023/09/08 00:38:02;;;;;;;2.40;2.20;;;;;;;22.83;100.00;99865.38;5111135;28;20195;-72
2023/09/08 00:40:29;;;;;;;2.43;2.33;;;;;;;22.79;100.00;99866.53;5111018;28;20195;-72
2023/09/08 00:42:55;;;;;;;2.23;2.13;;;;;;;22.74;100.00;99863.44;5111034;28;20203;-72
2023/09/08 00:45:24;;;;;;;2.83;2.63;;;;;;;22.64;100.00;99869.41;5111042;28;20195;-72
2023/09/08 00:47:51;;;;;;;4.03;1.90;;;;;;;22.65;100.00;99861.44;5111004;28;20210;-71
2023/09/08 00:50:18;;;;;;;2.17;2.07;;;;;;;22.60;100.00;99863.56;5111082;28;20217;-72
2023/09/08 00:52:45;;;;;;;3.77;2.07;;;;;;;22.48;100.00;99864.44;5111114;28;20673;-72
2023/09/08 00:55:11;;;;;;;2.40;2.30;;;;;;;22.49;100.00;99863.47;5111122;27;20255;-72
2023/09/08 00:57:38;;;;;;;2.03;1.93;;;;;;;22.48;100.00;99867.06;5110965;28;20199;-72
2023/09/08 01:00:06;;;;;;;2.20;2.10;;;;;;;22.49;100.00;99855.66;5110686;28;20618;-72
2023/09/08 01:02:34;;;;;;;2.43;2.23;;;;;;;22.45;100.00;99856.84;5111007;28;20199;-72
2023/09/08 01:05:02;;;;;;;4.77;2.47;;;;;;;22.43;100.00;99850.88;5110961;28;20195;-72
2023/09/08 01:07:31;;;;;;;3.23;3.03;;;;;;;22.35;100.00;99842.75;5111032;28;20214;-72
2023/09/08 01:10:03;;;;;;;4.33;2.60;;;;;;;22.30;100.00;99850.91;5109490;28;20229;-71
2023/09/08 01:12:30;;;;;;;2.20;2.10;;;;;;;22.29;100.00;99845.81;5107020;28;20301;-73
2023/09/08 01:14:57;;;;;;;2.80;2.60;;;;;;;22.28;100.00;99842.34;5110958;28;20251;-72
2023/09/08 01:17:23;;;;;;;2.77;2.57;;;;;;;22.31;100.00;99836.06;5110514;28;20195;-72
2023/09/08 01:19:56;;;;;;;2.70;2.50;;;;;;;22.32;100.00;99845.59;5110888;28;20206;-72
2023/09/08 01:22:46;;;;;;;2.53;2.37;;;;;;;22.31;100.00;99836.91;5110665;28;20556;-72
2023/09/08 01:25:20;;;;;;;2.73;2.63;;;;;;;22.31;100.00;99836.91;5110082;28;20199;-72
2023/09/08 01:27:49;;;;;;;2.10;1.90;;;;;;;22.33;100.00;99832.41;5110515;28;20219;-72
2023/09/08 01:30:17;;;;;;;2.57;2.47;;;;;;;22.36;100.00;99823.50;5110332;28;20228;-72
2023/09/08 01:32:45;;;;;;;2.13;2.03;;;;;;;22.39;100.00;99820.69;5110374;28;20191;-72
2023/09/08 01:35:13;;;;;;;2.40;2.20;;;;;;;22.37;100.00;99825.19;5109688;28;20199;-71
2023/09/08 01:37:42;;;;;;;2.27;2.17;;;;;;;22.36;100.00;99826.94;5110629;28;20235;-72
2023/09/08 01:40:10;;;;;;;2.50;2.40;;;;;;;22.36;100.00;99823.50;5110041;28;20239;-71
2023/09/08 01:42:38;;;;;;;2.90;2.73;;;;;;;22.40;100.00;99824.97;5110685;28;20654;-72
2023/09/08 01:45:06;;;;;;;2.30;2.10;;;;;;;22.39;100.00;99828.53;5112519;28;20573;-72
2023/09/08 01:47:33;;;;;;;2.03;1.93;;;;;;;22.39;100.00;99824.13;5114517;28;20247;-72
2023/09/08 01:50:01;;;;;;;3.13;2.83;;;;;;;22.38;100.00;99821.63;5114746;28;20255;-72
2023/09/08 01:52:28;;;;;;;2.37;2.17;;;;;;;22.37;100.00;99819.97;5114231;28;20576;-72
2023/09/08 01:54:54;;;;;;;2.57;2.37;;;;;;;22.40;100.00;99828.41;5114576;28;20221;-72
2023/09/08 01:57:21;;;;;;;2.10;2.00;;;;;;;22.33;100.00;99814.13;5113568;27;20224;-71
2023/09/08 01:59:49;;;;;;;2.27;2.17;;;;;;;22.37;100.00;99825.19;5114626;28;20639;-72
2023/09/08 02:02:16;;;;;;;2.80;2.40;;;;;;;22.37;100.00;99825.19;5114224;28;21665;-72
2023/09/08 02:04:44;;;;;;;2.73;2.53;;;;;;;22.29;100.00;99817.91;5114928;28;20195;-72
2023/09/08 02:07:10;;;;;;;2.20;2.10;;;;;;;22.32;100.00;99822.91;5113945;28;20191;-72
2023/09/08 02:09:38;;;;;;;2.00;1.90;;;;;;;22.31;100.00;99830.84;5114106;28;20218;-72
2023/09/08 02:12:06;;;;;;;2.63;2.10;;;;;;;22.28;100.00;99831.06;5113813;28;20279;-72
2023/09/08 02:14:32;;;;;;;2.20;2.10;;;;;;;22.26;100.00;99832.97;5114216;28;20648;-71
2023/09/08 02:17:00;;;;;;;2.90;2.70;;;;;;;22.23;100.00;99828.78;5114530;28;20198;-72
2023/09/08 02:19:27;;;;;;;3.67;1.97;;;;;;;22.15;100.00;99819.81;5113515;28;20202;-71
2023/09/08 02:21:54;;;;;;;2.30;2.20;;;;;;;22.15;100.00;99827.66;5114110;28;20198;-72
2023/09/08 02:24:20;;;;;;;2.70;2.50;;;;;;;22.13;100.00;99822.56;5113703;28;21547;-72
2023/09/08 02:26:47;;;;;;;3.83;2.47;;;;;;;22.11;100.00;99824.44;5113724;28;20214;-71
2023/09/08 02:29:14;;;;;;;2.90;2.20;;;;;;;22.09;100.00;99821.09;5113666;28;20214;-72
2023/09/08 02:31:41;;;;;;;2.53;2.33;;;;;;;22.08;100.00;99823.81;5113628;28;20194;-72
2023/09/08 02:34:11;;;;;;;2.93;2.73;;;;;;;22.04;100.00;99822.34;5113522;28;20213;-72
2023/09/08 02:36:38;;;;;;;3.10;2.87;;;;;;;21.85;100.00;99807.97;5113621;28;20198;-70
2023/09/08 02:39:06;;;;;;;4.90;2.30;;;;;;;21.86;100.00;99814.84;5113615;28;20275;-72
2023/09/08 02:41:34;;;;;;;1.90;1.80;;;;;;;21.78;100.00;99814.53;5113540;28;20247;-72
2023/09/08 02:44:00;;;;;;;2.33;2.23;;;;;;;21.73;100.00;99807.97;5112388;28;20194;-71
2023/09/08 02:46:27;;;;;;;2.50;2.30;;;;;;;21.70;100.00;99811.63;5113002;28;20285;-72
2023/09/08 02:48:54;;;;;;;7.60;2.37;;;;;;;21.63;100.00;99807.78;5113197;28;20267;-71
2023/09/08 02:51:22;;;;;;;5.53;3.07;;;;;;;21.60;100.00;99810.59;5113426;28;20279;-72
2023/09/08 02:53:48;;;;;;;2.30;2.20;;;;;;;21.43;100.00;99784.81;5113288;28;20658;-71
2023/09/08 02:56:15;;;;;;;3.03;1.97;;;;;;;21.49;100.00;99805.28;5113428;28;20256;-72
2023/09/08 02:58:42;;;;;;;2.47;2.17;;;;;;;21.46;100.00;99805.47;5112771;28;20190;-72
2023/09/08 03:01:14;;;;;;;4.07;2.63;;;;;;;21.45;100.00;99798.63;5111772;28;20198;-72
2023/09/08 03:03:41;;;;;;;2.50;2.40;;;;;;;21.43;100.00;99806.53;5113248;28;20226;-72
2023/09/08 03:06:08;;;;;;;2.20;2.10;;;;;;;21.41;100.00;99802.38;5112749;28;20628;-72
2023/09/08 03:08:37;;;;;;;4.10;2.90;;;;;;;21.38;100.00;99815.63;5112930;28;20266;-72
2023/09/08 03:11:05;;;;;;;2.70;2.60;;;;;;;21.35;100.00;99813.22;5112804;28;20241;-72
2023/09/08 03:13:32;;;;;;;3.47;2.73;;;;;;;21.29;100.00;99806.63;5112257;28;20305;-72
2023/09/08 03:16:03;;;;;;;5.00;3.00;;;;;;;21.24;100.00;99813.94;5112852;28;20195;-71
2023/09/08 03:18:30;;;;;;;3.03;2.57;;;;;;;21.22;100.00;99812.38;5112621;28;20627;-72
2023/09/08 03:20:56;;;;;;;3.37;3.13;;;;;;;21.22;100.00;99822.81;5112691;28;20199;-71
2023/09/08 03:23:23;;;;;;;3.20;3.00;;;;;;;21.24;100.00;99823.53;5112804;28;20287;-72
2023/09/08 03:25:51;;;;;;;3.57;3.40;;;;;;;21.25;100.00;99822.59;5112834;28;20191;-72
2023/09/08 03:28:18;;;;;;;3.30;2.63;;;;;;;21.19;100.00;99823.84;5112069;28;20267;-72
2023/09/08 03:30:45;;;;;;;3.23;2.70;;;;;;;21.19;100.00;99823.00;5112639;28;20252;-72
2023/09/08 03:33:12;;;;;;;4.93;2.97;;;;;;;21.19;100.00;99820.41;5112445;28;20654;-71
2023/09/08 03:35:38;;;;;;;2.60;2.50;;;;;;;21.18;100.00;99816.13;5112755;28;20248;-71
2023/09/08 03:38:05;;;;;;;2.83;2.63;;;;;;;21.19;100.00;99820.41;5110950;28;20365;-70
2023/09/08 03:40:32;;;;;;;4.40;2.90;;;;;;;21.19;100.00;99828.22;5111973;28;20198;-72
2023/09/08 03:43:00;;;;;;;5.83;2.83;;;;;;;21.18;100.00;99827.41;5112456;28;20203;-71
2023/09/08 03:45:27;;;;;;;3.87;2.80;;;;;;;21.19;100.00;99823.00;5112278;28;20624;-72
2023/09/08 03:47:53;;;;;;;3.30;3.07;;;;;;;21.16;100.00;99824.06;5112402;28;20194;-72
2023/09/08 03:50:20;;;;;;;4.83;3.00;;;;;;;21.11;100.00;99820.91;5111811;28;20283;-72
2023/09/08 03:52:47;;;;;;;3.10;2.77;;;;;;;21.09;100.00;99819.31;5112333;27;20275;-71
2023/09/08 03:55:13;;;;;;;2.10;2.00;;;;;;;21.10;100.00;99814.03;5111888;27;20228;-71
2023/09/08 03:57:40;;;;;;;2.67;2.47;;;;;;;21.12;100.00;99819.16;5111807;28;20207;-71
2023/09/08 04:00:11;;;;;;;3.20;2.60;;;;;;;21.11;100.00;99820.91;5111499;28;20202;-71
2023/09/08 04:02:37;;;;;;;5.90;2.87;;;;;;;21.09;100.00;99824.53;5111831;28;20301;-72
2023/09/08 04:05:05;;;;;;;2.20;2.10;;;;;;;21.11;100.00;99827.91;5111371;28;20692;-71
2023/09/08 04:07:32;;;;;;;5.27;3.63;;;;;;;21.13;100.00;99823.44;5111033;28;20287;-71
2023/09/08 04:10:01;;;;;;;2.87;2.67;;;;;;;21.07;100.00;99813.34;5111517;28;20268;-72
2023/09/08 04:12:28;;;;;;;3.67;3.20;;;;;;;21.17;100.00;99830.09;5110685;28;20226;-71
2023/09/08 04:14:54;;;;;;;2.90;2.70;;;;;;;21.17;100.00;99830.09;5111720;28;20624;-72
2023/09/08 04:17:23;;;;;;;6.27;3.50;;;;;;;21.19;100.00;99833.44;5111019;28;20203;-71
2023/09/08 04:19:49;;;;;;;2.60;2.40;;;;;;;21.22;100.00;99833.25;5111585;28;20214;-71
2023/09/08 04:22:16;;;;;;;4.20;3.90;;;;;;;21.24;100.00;99831.34;5110854;28;20209;-71
2023/09/08 04:24:43;;;;;;;3.47;3.27;;;;;;;21.25;100.00;99838.25;5111229;28;20194;-71
2023/09/08 04:27:10;;;;;;;3.83;3.63;;;;;;;21.27;100.00;99836.34;5111106;28;20202;-71
2023/09/08 04:29:37;;;;;;;3.87;3.57;;;;;;;21.27;100.00;99836.34;5110871;28;20214;-71
2023/09/08 04:32:08;;;;;;;3.93;3.63;;;;;;;21.30;100.00;99841.38;5110886;28;20263;-71
2023/09/08 04:34:38;;;;;;;3.50;3.20;;;;;;;21.33;100.00;99843.78;5110613;28;20226;-71
2023/09/08 04:37:04;;;;;;;3.37;3.07;;;;;;;21.33;100.00;99846.38;5111300;28;20198;-72
2023/09/08 04:39:31;;;;;;;4.10;3.77;;;;;;;21.32;100.00;99845.56;5111166;28;20604;-71
2023/09/08 04:41:58;;;;;;;3.80;3.43;;;;;;;21.38;100.00;99854.75;5111663;28;20198;-72
2023/09/08 04:44:25;;;;;;;4.43;4.23;;;;;;;21.42;100.00;99857.03;5111221;28;20210;-71
2023/09/08 04:46:52;;;;;;;6.17;3.93;;;;;;;21.53;100.00;99863.31;5111171;28;20203;-71
2023/09/08 04:49:19;;;;;;;4.13;3.80;;;;;;;21.59;100.00;99857.66;5109563;28;20271;-71
2023/09/08 04:51:47;;;;;;;4.00;3.70;;;;;;;21.66;100.00;99854.53;5110731;28;20190;-71
2023/09/08 04:54:14;;;;;;;4.37;4.07;;;;;;;21.75;100.00;99858.28;5110230;28;20239;-72
2023/09/08 04:56:40;;;;;;;4.37;3.97;;;;;;;21.81;100.00;99850.88;5110030;28;20199;-71
2023/09/08 04:59:07;;;;;;;4.53;4.33;;;;;;;21.71;100.00;99815.91;5110748;28;20191;-72
2023/09/08 05:01:37;;;;;;;4.17;3.87;;;;;;;22.07;100.00;99858.72;5110852;28;20248;-72
2023/09/08 05:04:04;;;;;;;3.80;3.60;;;;;;;22.23;100.00;99859.31;5110092;28;20210;-71
2023/09/08 05:06:31;;;;;;;4.87;4.37;;;;;;;22.34;100.00;99861.97;5108250;28;20203;-72
2023/09/08 05:08:59;;;;;;;4.20;3.83;;;;;;;22.38;100.00;99866.03;5110375;27;20210;-70
2023/09/08 05:11:26;;;;;;;4.70;3.73;;;;;;;22.50;100.00;99867.78;5107149;28;20203;-69
2023/09/08 05:13:53;;;;;;;3.77;3.50;;;;;;;22.64;100.00;99865.00;5109372;28;20199;-69
2023/09/08 05:16:25;;;;;;;3.63;3.43;;;;;;;22.69;100.00;99873.38;5110226;28;20199;-69
2023/09/08 05:18:52;;;;;;;6.10;3.67;;;;;;;22.70;100.00;99854.13;5106155;27;20218;-69
2023/09/08 05:21:19;;;;;;;4.17;3.17;;;;;;;22.92;100.00;99880.38;5108832;28;20555;-69
2023/09/08 05:23:46;;;;;;;2.90;2.80;;;;;;;22.89;100.00;99878.00;5107307;28;20202;-69
2023/09/08 05:26:14;;;;;;;4.00;3.60;;;;;;;22.94;100.00;99867.22;5107938;28;20206;-69
2023/09/08 05:28:40;;;;;;;3.17;2.87;;;;;;;22.99;100.00;99860.69;5107019;28;20199;-69
2023/09/08 05:31:07;;;;;;;3.50;3.30;;;;;;;23.06;100.00;99865.47;5108845;28;20202;-69
2023/09/08 05:33:34;;;;;;;3.40;3.20;;;;;;;23.13;100.00;99850.97;5107614;28;20604;-69
2023/09/08 05:36:01;;;;;;;3.43;3.23;;;;;;;23.39;100.00;99868.19;5108507;28;20206;-69
2023/09/08 05:38:28;;;;;;;2.97;2.80;;;;;;;23.59;100.00;99875.34;5109721;28;20256;-69
2023/09/08 05:40:55;;;;;;;3.40;3.20;;;;;;;23.81;100.00;99883.22;5106369;28;20195;-69
2023/09/08 05:43:24;;;;;;;2.40;2.30;;;;;;;23.95;100.00;99880.38;5107735;28;20685;-68
2023/09/08 05:45:51;;;;;;;2.20;2.10;;;;;;;24.05;100.00;99889.22;5109226;28;20199;-69
2023/09/08 05:48:18;;;;;;;4.23;3.17;;;;;;;24.20;100.00;99883.75;5109599;28;20647;-68
2023/09/08 05:50:45;;;;;;;3.80;3.00;;;;;;;24.40;100.00;99896.94;5109949;28;20218;-69
2023/09/08 05:53:11;;;;;;;3.63;3.33;;;;;;;24.59;100.00;99898.94;5109563;28;20289;-69
2023/09/08 05:55:38;;;;;;;2.83;2.63;;;;;;;24.79;100.00;99895.53;5110595;28;20272;-68
2023/09/08 05:58:07;;;;;;;3.47;3.17;;;;;;;25.01;100.00;99895.47;5109930;28;20199;-69
2023/09/08 06:00:35;;;;;;;2.40;2.30;;;;;;;25.24;99.12;99895.38;5108034;28;20222;-69
2023/09/08 06:03:02;;;;;;;4.40;2.83;;;;;;;25.33;96.04;99899.91;5110362;28;20203;-69
2023/09/08 06:05:28;;;;;;;4.03;3.20;;;;;;;25.50;97.38;99902.78;5110562;28;20202;-68
2023/09/08 06:07:55;;;;;;;2.67;2.47;;;;;;;25.67;95.28;99898.75;5117209;28;20194;-69
2023/09/08 06:10:22;;;;;;;4.70;3.03;;;;;;;25.84;93.63;99899.94;5111138;28;20218;-68
2023/09/08 06:12:50;;;;;;;2.33;2.23;;;;;;;26.01;92.56;99902.78;5109297;28;20223;-65
2023/09/08 06:15:17;;;;;;;2.80;2.60;;;;;;;26.14;91.20;99907.00;5109295;28;20286;-65
2023/09/08 06:17:46;;;;;;;2.57;2.47;;;;;;;26.11;89.76;99898.41;5110699;28;20215;-69
2023/09/08 06:20:13;;;;;;;2.10;2.00;;;;;;;26.06;87.87;99903.22;5116713;27;20230;-69
2023/09/08 06:22:40;;;;;;;5.27;2.37;;;;;;;26.12;89.10;99909.75;5113738;28;20199;-69
2023/09/08 06:25:07;;;;;;;1.63;1.63;;;;;;;26.03;88.50;99914.00;5112128;28;20639;-69
2023/09/08 06:27:34;;;;;;;2.23;2.03;;;;;;;26.02;88.92;99914.97;5112182;28;20670;-69
2023/09/08 06:30:01;;;;;;;2.20;2.10;;;;;;;25.87;88.42;99921.53;5108212;28;20222;-70
2023/09/08 06:32:27;;;;;;;2.90;2.70;;;;;;;25.79;90.89;99918.72;5115188;27;20629;-71
2023/09/08 06:34:58;;;;;;;2.40;2.30;;;;;;;25.75;90.68;99922.56;5117850;27;20209;-70
2023/09/08 06:37:25;;;;;;;2.30;2.20;;;;;;;25.76;90.71;99924.22;5118248;27;20271;-71
2023/09/08 06:39:54;;;;;;;3.53;2.03;;;;;;;25.72;91.85;99912.31;5117323;27;20702;-72
2023/09/08 06:42:23;;;;;;;3.90;2.40;;;;;;;25.76;93.36;99912.88;5113281;27;20264;-72
2023/09/08 06:44:50;;;;;;;1.97;1.87;;;;;;;25.77;90.56;99923.28;5115493;27;20273;-72
2023/09/08 06:47:16;;;;;;;2.63;2.43;;;;;;;25.66;93.02;99925.13;5119628;27;20203;-71
2023/09/08 06:49:43;;;;;;;2.47;2.37;;;;;;;25.66;91.73;99925.97;5121940;27;20305;-72
2023/09/08 06:52:12;;;;;;;2.30;2.20;;;;;;;25.76;92.94;99918.97;5113830;27;20593;-71
2023/09/08 06:54:38;;;;;;;2.10;2.00;;;;;;;25.90;89.29;99938.81;5111652;27;20739;-72
2023/09/08 06:57:05;;;;;;;2.50;2.40;;;;;;;25.95;87.62;99928.75;5117737;27;20237;-73
2023/09/08 06:59:32;;;;;;;2.10;2.00;;;;;;;25.94;87.62;99934.97;5112430;27;20202;-72
2023/09/08 07:01:59;;;;;;;1.93;1.83;;;;;;;25.92;90.43;99935.09;5113725;27;20247;-66
2023/09/08 07:04:25;;;;;;;5.80;2.57;;;;;;;26.09;88.92;99926.63;5112123;28;20199;-69
2023/09/08 07:06:54;;;;;;;3.30;2.03;;;;;;;26.37;88.01;99934.75;5114422;28;20731;-70
2023/09/08 07:09:22;;;;;;;2.03;1.93;;;;;;;26.60;88.64;99936.22;5114716;28;20233;-69
2023/09/08 07:11:49;;;;;;;2.70;2.60;;;;;;;26.89;86.73;99941.56;5114971;28;20215;-70
2023/09/08 07:14:16;;;;;;;5.40;2.10;;;;;;;27.12;85.33;99946.44;5112560;28;20240;-70
2023/09/08 07:16:42;;;;;;;2.07;1.97;;;;;;;27.23;81.41;99945.47;5114446;28;20198;-70
2023/09/08 07:19:09;;;;;;;1.63;1.53;;;;;;;27.29;81.96;99933.53;5112503;28;20198;-70
2023/09/08 07:21:36;;;;;;;1.63;1.53;;;;;;;27.17;81.78;99935.50;5112408;28;20199;-71
2023/09/08 07:24:02;;;;;;;1.50;1.47;;;;;;;27.07;81.62;99934.66;5113876;27;20199;-71
2023/09/08 07:26:30;;;;;;;2.17;2.07;;;;;;;27.05;81.64;99936.59;5113817;27;20622;-70
2023/09/08 07:28:57;;;;;;;2.43;1.97;;;;;;;27.01;82.18;99929.97;5112947;28;20660;-70
2023/09/08 07:31:24;;;;;;;2.03;1.93;;;;;;;27.20;83.91;99934.38;5112990;28;20268;-69
2023/09/08 07:33:51;;;;;;;2.23;2.13;;;;;;;27.46;83.27;99935.53;5113923;28;20199;-70
2023/09/08 07:36:17;;;;;;;1.27;1.27;;;;;;;27.52;77.19;99929.69;5114241;27;20199;-69
2023/09/08 07:38:44;;;;;;;1.43;1.40;;;;;;;27.63;77.92;99932.13;5114224;27;20201;-69
2023/09/08 07:41:11;;;;;;;1.70;1.60;;;;;;;27.66;78.30;99937.13;5113086;27;20199;-69
2023/09/08 07:43:40;;;;;;;1.93;1.43;;;;;;;27.76;74.83;99927.41;5109712;28;20202;-70
2023/09/08 07:46:07;;;;;;;1.93;1.83;;;;;;;27.78;75.20;99925.47;5111886;28;20716;-70
2023/09/08 07:48:34;;;;;;;1.67;1.57;;;;;;;27.83;76.91;99923.22;5111937;28;20198;-69
2023/09/08 07:51:00;;;;;;;1.83;1.73;;;;;;;27.98;74.65;99931.50;5113193;28;20268;-70
2023/09/08 07:53:27;;;;;;;1.50;1.40;;;;;;;28.08;75.05;99937.59;5111080;27;20203;-69
2023/09/08 07:55:54;;;;;;;1.53;1.43;;;;;;;27.97;75.74;99933.31;5113075;28;20202;-69
2023/09/08 07:58:23;;;;;;;2.07;1.70;;;;;;;27.76;74.05;99932.66;5113126;28;20207;-68
2023/09/08 08:00:51;;;;;;;1.57;1.47;;;;;;;27.60;73.57;99921.88;5109010;28;20636;-66
2023/09/08 08:03:17;;;;;;;1.80;1.70;;;;;;;27.55;74.02;99929.41;5112046;28;20203;-67
2023/09/08 08:05:44;;;;;;;1.50;1.40;;;;;;;27.54;75.69;99917.19;5112715;28;20859;-67
2023/09/08 08:08:11;;;;;;;1.20;1.20;;;;;;;27.66;75.86;99920.50;5112662;28;20252;-67
2023/09/08 08:10:38;;;;;;;1.30;1.30;;;;;;;27.72;73.47;99925.22;5111700;28;20210;-67
2023/09/08 08:13:04;;;;;;;1.90;1.80;;;;;;;27.69;71.27;99917.59;5112461;28;20218;-65
2023/09/08 08:15:38;;;;;;;1.30;1.30;;;;;;;27.47;71.59;99921.34;5111286;28;20271;-66
2023/09/08 08:18:09;;;;;;;1.30;1.20;;;;;;;27.48;71.72;99923.88;5113180;28;20195;-66
2023/09/08 08:20:36;;;;;;;1.73;1.63;;;;;;;27.31;69.64;99923.69;5112471;27;20191;-66
2023/09/08 08:23:03;;;;;;;3.27;1.30;;;;;;;27.01;69.56;99914.97;5116867;27;20198;-65
2023/09/08 08:25:30;;;;;;;1.67;1.57;;;;;;;26.74;71.15;99917.44;5114546;27;20600;-66
2023/09/08 08:27:58;;;;;;;1.40;1.40;;;;;;;26.83;70.34;99911.38;5114548;27;20199;-66
2023/09/08 08:30:25;;;;;;;1.20;1.20;;;;;;;26.89;72.78;99913.44;5112409;28;20714;-67
2023/09/08 08:32:53;;;;;;;1.63;1.57;;;;;;;26.73;70.69;99913.13;5114451;27;20302;-67
2023/09/08 08:35:21;;;;;;;1.60;1.60;;;;;;;26.86;73.98;99908.47;5114406;27;20638;-67
2023/09/08 08:37:49;;;;;;;1.30;1.30;;;;;;;26.94;72.86;99907.78;5114330;27;20762;-67
2023/09/08 08:40:15;;;;;;;1.70;1.60;;;;;;;26.97;70.47;99897.81;5114736;27;20201;-67
2023/09/08 08:42:44;;;;;;;2.13;2.03;;;;;;;27.05;70.01;99905.84;5112023;28;20620;-67
2023/09/08 08:45:11;;;;;;;2.83;2.63;;;;;;;27.18;68.31;99900.28;5114549;27;20708;-67
2023/09/08 08:47:38;;;;;;;2.40;1.43;;;;;;;27.30;70.20;99899.19;5112311;28;20194;-67
2023/09/08 08:50:10;;;;;;;1.60;1.50;;;;;;;27.44;67.48;99897.94;5109275;28;20210;-67
2023/09/08 08:52:39;;;;;;;1.80;1.70;;;;;;;27.46;67.51;99898.66;5111572;28;20578;-67
2023/09/08 08:55:07;;;;;;;1.17;1.17;;;;;;;27.41;67.55;99895.56;5110485;28;20201;-64
2023/09/08 08:57:38;;;;;;;1.80;1.70;;;;;;;27.44;66.98;99900.56;5111663;28;20229;-64
2023/09/08 09:00:09;;;;;;;2.00;1.63;;;;;;;27.47;70.34;99895.03;5109708;28;20190;-63
2023/09/08 09:02:37;;;;;;;1.43;1.43;;;;;;;27.49;69.24;99898.34;5107100;27;20252;-65
2023/09/08 09:05:06;;;;;;;1.33;1.30;;;;;;;27.49;69.93;99893.09;5111107;28;20195;-64
2023/09/08 09:07:33;;;;;;;1.40;1.30;;;;;;;27.44;68.91;99895.31;5111577;28;20233;-64
2023/09/08 09:10:02;;;;;;;1.30;1.30;;;;;;;27.26;69.28;99870.66;5111450;28;20368;-67
2023/09/08 09:12:28;;;;;;;1.90;1.70;;;;;;;27.20;67.86;99898.38;5106677;28;20215;-67
2023/09/08 09:14:55;;;;;;;1.60;1.60;;;;;;;27.21;66.83;99883.38;5111614;28;20201;-69
2023/09/08 09:17:22;;;;;;;1.33;1.20;;;;;;;27.29;69.33;99887.00;5109133;27;20230;-68
2023/09/08 09:19:49;;;;;;;1.30;1.30;;;;;;;27.20;66.25;99887.00;5108320;28;20263;-69
2023/09/08 09:22:20;;;;;;;1.33;1.30;;;;;;;27.22;67.05;99890.31;5108364;28;20284;-68
2023/09/08 09:24:47;;;;;;;1.67;1.67;;;;;;;27.21;67.46;99857.06;5108679;28;20198;-68
2023/09/08 09:27:15;;;;;;;1.33;1.30;;;;;;;27.48;67.71;99878.25;5106557;28;20228;-67
2023/09/08 09:29:47;;;;;;;1.53;1.40;;;;;;;27.64;67.58;99865.31;5107531;28;20199;-68
2023/09/08 09:32:14;;;;;;;2.80;1.00;;;;;;;27.95;66.39;99879.09;5107971;28;20645;-68
2023/09/08 09:34:49;;;;;;;1.50;1.50;;;;;;;28.14;64.80;99893.03;5105193;28;20271;-68
2023/09/08 09:37:16;;;;;;;1.07;1.07;;;;;;;28.12;59.02;99881.81;5109584;28;20198;-68
2023/09/08 09:39:43;;;;;;;1.23;1.13;;;;;;;27.97;57.29;99874.50;5107337;28;20198;-68
2023/09/08 09:42:10;;;;;;;1.23;1.20;;;;;;;27.89;57.09;99875.22;5109754;28;20245;-67
2023/09/08 09:44:38;;;;;;;1.73;1.63;;;;;;;27.75;57.33;99869.59;5108977;28;20195;-66
2023/09/08 09:47:06;;;;;;;1.77;1.67;;;;;;;27.70;56.98;99875.28;5109662;28;20206;-66
2023/09/08 09:49:42;;;;;;;1.23;1.20;;;;;;;27.67;57.87;99870.28;5106507;28;20199;-65
2023/09/08 09:52:08;;;;;;;0.80;0.80;;;;;;;27.82;57.58;99862.78;5104105;28;20226;-70
2023/09/08 09:54:36;;;;;;;0.90;0.90;;;;;;;27.96;56.18;99867.56;5105824;28;20199;-66
2023/09/08 09:57:04;;;;;;;1.30;1.20;;;;;;;27.93;55.88;99860.78;5110145;28;20203;-67
2023/09/08 09:59:31;;;;;;;1.40;1.40;;;;;;;28.17;55.57;99861.09;5108966;28;20638;-66
2023/09/08 10:02:01;;;;;;;1.00;1.00;;;;;;;28.44;59.00;99859.41;5108922;28;20575;-68
2023/09/08 10:04:29;;;;;;;0.97;0.97;;;;;;;28.66;57.16;99859.00;5107897;28;20232;-67
2023/09/08 10:06:57;;;;;;;1.17;1.17;;;;;;;28.68;55.54;99851.78;5111965;28;20301;-67
2023/09/08 10:09:25;;;;;;;1.15;1.15;;;;;;;28.77;57.02;99829.75;5113668;28;20226;-66
2023/09/08 10:11:55;;;;;;;1.05;1.05;;;;;;;29.06;54.34;99846.19;5115131;27;20226;-66
2023/09/08 10:14:22;;;;;;;1.77;1.13;;;;;;;29.17;54.08;99837.19;5114143;28;20252;-72
2023/09/08 10:16:53;;;;;;;1.15;0.90;;;;;;;29.25;52.54;99831.16;5110422;28;20644;-71
2023/09/08 10:19:23;;;;;;;0.82;0.82;;;;;;;29.19;50.48;99828.13;5113404;28;20442;-67
2023/09/08 10:21:52;;;;;;;0.82;0.82;;;;;;;29.33;51.26;99823.31;5113868;28;20198;-67
2023/09/08 10:24:24;;;;;;;0.85;0.85;;;;;;;29.41;51.59;99823.34;5114389;28;20206;-68
2023/09/08 10:26:59;;;;;;;0.90;0.90;;;;;;;29.25;50.72;99818.78;5109658;28;20252;-67
2023/09/08 10:29:28;;;;;;;1.10;1.10;;;;;;;29.31;51.08;99822.59;5104112;28;20209;-67
2023/09/08 10:31:56;;;;;;;1.23;1.23;;;;;;;29.41;50.48;99818.06;5113783;28;20215;-67
2023/09/08 10:34:26;;;;;;;0.95;0.95;;;;;;;29.44;52.20;99817.72;5114573;28;20199;-68
2023/09/08 10:36:53;;;;;;;0.90;0.90;;;;;;;29.51;49.59;99814.31;5112957;28;20194;-67
2023/09/08 10:39:31;;;;;;;1.40;1.30;;;;;;;29.60;51.62;99799.31;5113662;28;20582;-67
2023/09/08 10:42:24;;;;;;;1.17;1.10;;;;;;;29.44;50.26;99808.00;5113818;28;20206;-67
2023/09/08 10:45:04;;;;;;;1.13;1.00;;;;;;;29.38;49.77;99808.63;5110731;28;20259;-67
2023/09/08 10:47:42;;;;;;;1.05;1.05;;;;;;;29.36;49.61;99805.34;5110134;28;20289;-67
2023/09/08 10:50:17;;;;;;;1.00;1.00;;;;;;;29.47;50.74;99801.56;5112237;28;20210;-67
2023/09/08 10:52:44;;;;;;;0.73;0.73;;;;;;;29.68;50.50;99805.50;5114189;28;20554;-67
2023/09/08 10:55:12;;;;;;;2.28;1.25;;;;;;;29.77;49.73;99798.44;5111783;28;20551;-67
2023/09/08 10:57:46;;;;;;;1.75;0.93;;;;;;;29.77;48.76;99798.44;5114251;28;20283;-66
2023/09/08 11:00:20;;;;;;;1.08;1.08;;;;;;;29.77;51.20;99798.44;5114188;28;20198;-67
2023/09/08 11:02:50;;;;;;;1.05;1.00;;;;;;;29.69;48.77;99795.75;5111516;28;20685;-66
2023/09/08 11:05:20;;;;;;;0.93;0.93;;;;;;;29.74;48.60;99793.47;5112644;28;20244;-68
2023/09/08 11:07:49;;;;;;;1.00;1.00;;;;;;;29.75;51.02;99787.19;5109167;27;20971;-69
2023/09/08 11:10:18;;;;;;;1.38;0.70;;;;;;;29.84;47.64;99788.06;5112233;28;20206;-73
2023/09/08 11:12:46;;;;;;;0.75;0.75;;;;;;;29.81;48.95;99789.19;5109126;28;20233;-70
2023/09/08 11:15:12;;;;;;;0.77;0.77;;;;;;;30.00;49.19;99783.69;5113266;28;20203;-69
2023/09/08 11:17:41;;;;;;;1.20;1.20;;;;;;;30.13;48.62;99784.03;5108294;28;20195;-69
2023/09/08 11:20:11;;;;;;;0.98;0.98;;;;;;;30.24;48.84;99774.16;5109459;28;20234;-69
2023/09/08 11:22:40;;;;;;;0.95;0.88;;;;;;;30.40;47.92;99768.91;5112845;28;20574;-69
2023/09/08 11:25:10;;;;;;;0.82;0.80;;;;;;;30.53;46.21;99774.56;5111834;28;20202;-70
2023/09/08 11:27:39;;;;;;;1.15;1.15;;;;;;;30.44;46.18;99767.56;5108014;28;20281;-69
2023/09/08 11:30:08;;;;;;;0.68;0.68;;;;;;;30.42;46.07;99756.34;5112152;28;20639;-69
2023/09/08 11:32:36;;;;;;;1.02;1.02;;;;;;;30.36;44.42;99759.63;5112857;28;20211;-70